Time;durP1;ratioP1;P1;durP2;ratioP2;P2;SDS_P1;SDS_P2;PMS_P1;PMS_P2;Temp;Humidity;BMP_temperature;BMP_pressure;BME280_temperature;BME280_humidity;BME280_pressure;Samples;Min_cycle;Max_cycle;Signal;HPM_P1;HPM_P2
2022/04/26 03:36:39;;;;;;;;;32.75;28.25;;;;;12.47;91.60;101280.28;5078666;28;45476;-77
2022/04/26 03:39:06;;;;;;;;;31.50;26.00;;;;;12.52;92.52;101290.06;5079283;27;45295;-77
2022/04/26 03:41:32;;;;;;;;;30.75;29.25;;;;;12.53;92.67;101290.94;5079215;27;45358;-77
2022/04/26 03:43:59;;;;;;;;;30.00;27.75;;;;;12.51;92.87;101292.56;5079938;27;45387;-76
2022/04/26 03:46:25;;;;;;;;;29.25;26.25;;;;;12.51;92.28;101295.16;5078199;27;46817;-76
2022/04/26 03:48:51;;;;;;;;;28.00;27.00;;;;;12.52;93.10;101299.53;5077204;27;45484;-76
2022/04/26 03:51:16;;;;;;;;;28.25;27.25;;;;;12.51;93.16;101297.75;5078785;27;45338;-76
2022/04/26 03:53:42;;;;;;;;;30.75;26.50;;;;;12.51;92.80;101293.47;5080997;27;45446;-76
2022/04/26 03:56:08;;;;;;;;;34.50;30.25;;;;;12.51;93.58;101297.75;5086549;27;46181;-76
2022/04/26 03:58:34;;;;;;;;;27.25;24.00;;;;;12.56;93.52;101291.06;5081916;27;45466;-77
2022/04/26 04:01:00;;;;;;;;;34.00;28.00;;;;;12.57;93.54;101300.66;5079596;27;45332;-77
2022/04/26 04:03:27;;;;;;;;;31.25;30.75;;;;;12.49;93.29;101294.19;5079631;27;45631;-76
2022/04/26 04:05:53;;;;;;;;;36.50;31.00;;;;;12.55;92.98;101304.88;5078762;27;46194;-77
2022/04/26 04:08:19;;;;;;;;;29.50;27.75;;;;;12.51;93.36;101311.66;5078516;27;45360;-77
2022/04/26 04:10:44;;;;;;;;;30.50;29.00;;;;;12.45;93.44;101300.97;5078098;27;45595;-78
2022/04/26 04:13:10;;;;;;;;;41.25;31.00;;;;;12.38;92.16;101288.53;5078723;27;45487;-78
2022/04/26 04:15:36;;;;;;;;;34.50;29.25;;;;;12.48;93.48;101310.59;5078569;27;46215;-77
2022/04/26 04:18:02;;;;;;;;;36.75;30.50;;;;;12.41;93.10;101308.56;5078136;27;45944;-78
2022/04/26 04:20:29;;;;;;;;;35.25;28.25;;;;;12.43;93.40;101313.00;5078372;28;45429;-77
2022/04/26 04:22:56;;;;;;;;;31.50;27.25;;;;;12.41;93.59;101317.25;5078321;27;45285;-77
2022/04/26 04:25:22;;;;;;;;;32.00;30.25;;;;;12.47;93.43;101321.84;5076820;28;46409;-77
2022/04/26 04:27:48;;;;;;;;;31.50;30.00;;;;;12.44;92.79;101316.50;5078000;27;45296;-77
2022/04/26 04:30:14;;;;;;;;;33.50;32.50;;;;;12.39;93.67;101327.56;5078248;27;45254;-78
2022/04/26 04:32:39;;;;;;;;;35.50;31.25;;;;;12.36;93.41;101327.41;5078576;27;45452;-78
2022/04/26 04:35:06;;;;;;;;;34.00;30.50;;;;;12.37;93.57;101325.72;5078476;28;46121;-77
2022/04/26 04:37:31;;;;;;;;;36.00;31.50;;;;;12.35;93.56;101322.16;5079865;27;45915;-77
2022/04/26 04:39:57;;;;;;;;;37.50;32.75;;;;;12.34;94.68;101334.25;5085236;27;45290;-78
2022/04/26 04:42:23;;;;;;;;;34.00;31.50;;;;;12.27;95.11;101318.31;5081371;27;45545;-78
2022/04/26 04:44:48;;;;;;;;;30.75;29.50;;;;;12.32;93.45;101334.97;5077653;27;45295;-77
2022/04/26 04:47:14;;;;;;;;;38.25;31.00;;;;;12.31;94.50;101335.81;5077567;27;45296;-78
2022/04/26 04:49:40;;;;;;;;;39.25;32.00;;;;;12.38;94.94;101346.53;5077689;28;45234;-77
2022/04/26 04:52:06;;;;;;;;;34.75;31.00;;;;;12.41;94.91;101343.22;5078169;27;45236;-76
2022/04/26 04:54:31;;;;;;;;;40.00;34.00;;;;;12.42;94.79;101350.16;5077569;27;46096;-77
2022/04/26 04:56:57;;;;;;;;;38.75;33.75;;;;;12.41;94.79;101344.91;5077515;28;45265;-77
2022/04/26 04:59:23;;;;;;;;;35.25;32.25;;;;;12.39;94.66;101357.84;5077756;27;45239;-76
2022/04/26 05:01:48;;;;;;;;;32.25;29.50;;;;;12.39;94.88;101361.31;5077373;28;45592;-76
2022/04/26 05:04:14;;;;;;;;;36.00;31.75;;;;;12.38;94.88;101358.66;5077844;27;45378;-77
2022/04/26 05:06:40;;;;;;;;;30.50;28.25;;;;;12.40;95.23;101359.63;5076704;28;45774;-77
2022/04/26 05:09:05;;;;;;;;;43.50;33.50;;;;;12.36;95.21;101357.69;5077567;28;45390;-77
2022/04/26 05:11:31;;;;;;;;;39.00;33.75;;;;;12.40;95.19;101364.81;5077815;27;45342;-77
2022/04/26 05:13:56;;;;;;;;;36.50;31.00;;;;;12.39;95.54;101370.81;5077077;27;45985;-76
2022/04/26 05:16:22;;;;;;;;;38.25;31.00;;;;;12.37;95.33;101373.31;5078472;27;45478;-77
2022/04/26 05:18:47;;;;;;;;;36.25;31.75;;;;;12.41;93.85;101368.28;5084214;27;45314;-78
2022/04/26 05:21:13;;;;;;;;;36.25;32.00;;;;;12.49;94.07;101378.22;5087081;27;45467;-76
2022/04/26 05:26:23;;;;;;;;;37.75;33.75;;;;;12.63;93.82;101391.81;5100967;27;45312;-77
2022/04/26 05:28:49;;;;;;;;;36.75;32.75;;;;;12.53;93.71;101374.03;5087364;27;45172;-77
2022/04/26 05:31:15;;;;;;;;;36.25;30.75;;;;;12.59;94.11;101389.91;5077843;27;45341;-77
2022/04/26 05:33:40;;;;;;;;;33.00;31.50;;;;;12.48;93.94;101380.72;5079186;27;45323;-77
2022/04/26 05:36:06;;;;;;;;;41.00;35.75;;;;;12.43;95.61;101388.31;5082912;27;45650;-78
2022/04/26 05:38:33;;;;;;;;;37.50;33.75;;;;;12.47;95.80;101405.81;5099354;27;45326;-85
2022/04/26 05:40:59;;;;;;;;;44.75;35.00;;;;;12.41;95.23;101381.25;5078060;27;45384;-86
2022/04/26 05:43:24;;;;;;;;;40.75;34.25;;;;;12.52;95.35;101398.25;5078612;28;45918;-88
2022/04/26 05:45:50;;;;;;;;;40.75;35.75;;;;;12.48;95.98;101388.50;5080379;28;45429;-84
2022/04/26 05:48:16;;;;;;;;;46.25;35.25;;;;;12.49;95.11;101393.81;5078226;27;45379;-84
2022/04/26 05:50:41;;;;;;;;;48.00;35.25;;;;;12.49;95.39;101396.41;5076498;27;45506;-78
2022/04/26 05:53:07;;;;;;;;;47.25;35.75;;;;;12.53;95.71;101421.69;5066406;28;45431;-80
2022/04/26 05:55:33;;;;;;;;;44.25;36.25;;;;;12.38;96.33;101403.66;5077824;27;45391;-74
2022/04/26 05:57:59;;;;;;;;;43.50;35.00;;;;;12.41;96.71;101415.03;5076551;28;45389;-88
2022/04/26 06:00:25;;;;;;;;;42.50;36.00;;;;;12.26;96.85;101390.09;5087312;27;45314;-81
2022/04/26 06:02:50;;;;;;;;;46.00;36.50;;;;;12.14;97.80;101380.03;5081607;27;45422;-82
2022/04/26 06:05:16;;;;;;;;;42.00;36.00;;;;;12.41;98.01;101421.13;5078140;27;45177;-80
2022/04/26 06:07:41;;;;;;;;;37.25;34.00;;;;;12.41;97.91;101421.13;5078036;27;45238;-76
2022/04/26 06:10:10;;;;;;;;;47.50;38.50;;;;;12.22;98.44;101401.19;5085518;27;45540;-86
2022/04/26 06:12:41;;;;;;;;;49.50;41.25;;;;;12.39;98.68;101418.44;5099224;27;45649;-91
2022/04/26 06:15:08;;;;;;;;;50.50;40.00;;;;;12.28;99.01;101404.06;5095218;27;45918;-88
2022/04/26 06:17:35;;;;;;;;;49.50;37.00;;;;;12.34;98.87;101414.75;5086680;27;45443;-84
2022/04/26 06:20:00;;;;;;;;;50.75;39.00;;;;;12.09;99.84;101376.34;5076164;27;45439;-81
2022/04/26 06:22:26;;;;;;;;;53.25;42.00;;;;;12.34;100.00;101413.84;5078480;28;46111;-79
2022/04/26 06:24:52;;;;;;;;;50.25;40.50;;;;;12.21;100.00;101394.22;5081336;27;45601;-87
2022/04/26 06:27:18;;;;;;;;;50.25;40.00;;;;;12.31;100.00;101424.09;5076874;27;45447;-85
2022/04/26 06:29:45;;;;;;;;;54.50;41.25;;;;;12.25;100.00;101414.31;5075403;27;45422;-89
2022/04/26 06:32:20;;;;;;;;;50.25;39.50;;;;;11.88;100.00;101355.41;5077034;27;46918;-88
2022/04/26 06:34:45;;;;;;;;;59.50;43.00;;;;;11.91;100.00;101356.44;5078290;27;45468;-92
2022/04/26 06:37:13;;;;;;;;;58.00;44.00;;;;;12.36;100.00;101420.00;5080795;28;45365;-88
2022/04/26 06:39:39;;;;;;;;;56.00;44.00;;;;;12.48;100.00;101436.16;5080327;28;45206;-87
2022/04/26 06:42:05;;;;;;;;;53.00;42.50;;;;;12.21;100.00;101394.22;5078370;27;46439;-85
2022/04/26 06:44:31;;;;;;;;;56.50;45.00;;;;;12.57;100.00;101450.41;5076711;27;45486;-86
2022/04/26 06:46:57;;;;;;;;;57.00;44.50;;;;;12.38;100.00;101421.84;5076495;27;45649;-86
2022/04/26 06:49:23;;;;;;;;;56.75;44.75;;;;;12.39;100.00;101404.56;5080147;27;45318;-85
2022/04/26 06:51:48;;;;;;;;;58.75;46.00;;;;;12.32;100.00;101384.31;5083749;27;45390;-82
2022/04/26 06:54:14;;;;;;;;;59.75;46.75;;;;;12.67;100.00;101448.31;5078033;27;45491;-79
2022/04/26 06:56:45;;;;;;;;;62.75;48.00;;;;;12.68;100.00;101444.00;5080634;28;45330;-87
2022/04/26 06:59:12;;;;;;;;;62.75;49.75;;;;;12.78;100.00;101441.00;5077290;27;45576;-84
2022/04/26 07:01:38;;;;;;;;;61.50;46.75;;;;;12.76;100.00;101429.63;5083176;27;46060;-84
2022/04/26 07:04:04;;;;;;;;;57.25;45.75;;;;;12.89;100.00;101428.50;5076240;28;45885;-84
2022/04/26 07:06:30;;;;;;;;;64.25;47.50;;;;;12.99;100.00;101435.00;5076169;27;45765;-83
2022/04/26 07:08:56;;;;;;;;;64.75;50.00;;;;;13.01;99.81;101421.25;5074956;28;45385;-82
2022/04/26 07:11:22;;;;;;;;;63.75;49.25;;;;;13.21;99.44;101444.66;5077462;28;47633;-83
2022/04/26 07:13:48;;;;;;;;;62.75;47.75;;;;;13.12;97.98;101416.53;5079640;27;45205;-83
2022/04/26 07:16:14;;;;;;;;;65.75;49.75;;;;;13.36;98.10;101444.44;5079868;28;45397;-77
2022/04/26 07:18:40;;;;;;;;;59.00;46.50;;;;;13.42;97.04;101436.03;5081655;27;45822;-84
2022/04/26 07:21:05;;;;;;;;;63.25;48.25;;;;;13.53;95.83;101449.50;5081095;28;47459;-87
2022/04/26 07:23:32;;;;;;;;;62.25;46.75;;;;;13.41;96.00;101435.13;5081979;27;45397;-88
2022/04/26 07:25:59;;;;;;;;;65.25;51.50;;;;;13.39;95.46;101433.28;5080297;28;45296;-89
2022/04/26 07:28:25;;;;;;;;;60.00;46.25;;;;;13.60;94.59;101456.75;5082130;27;45276;-88
2022/04/26 07:30:51;;;;;;;;;62.50;48.25;;;;;13.45;95.10;101441.34;5083738;27;45890;-86
2022/04/26 07:36:00;;;;;;;;;65.25;48.75;;;;;13.42;95.25;101454.25;5091994;28;44665;-83
2022/04/26 07:38:26;;;;;;;;;63.75;50.00;;;;;13.45;95.44;101465.69;5087680;27;45219;-79
2022/04/26 07:40:52;;;;;;;;;61.25;47.75;;;;;13.52;95.36;101469.44;5081684;27;46289;-78
2022/04/26 07:43:17;;;;;;;;;65.75;48.50;;;;;13.50;94.76;101452.88;5080144;27;45458;-80
2022/04/26 07:45:45;;;;;;;;;60.50;47.00;;;;;13.75;94.38;101480.81;5079381;27;45304;-79
2022/04/26 07:48:11;;;;;;;;;54.50;44.00;;;;;13.66;94.05;101456.13;5079050;27;45499;-79
2022/04/26 07:50:38;;;;;;;;;61.25;48.25;;;;;13.78;93.43;101467.03;5079013;27;45442;-80
2022/04/26 07:53:04;;;;;;;;;64.25;50.00;;;;;13.95;93.62;101487.69;5078376;27;45479;-78
2022/04/26 07:55:30;;;;;;;;;64.50;48.25;;;;;13.79;93.18;101440.19;5078544;27;45519;-84
2022/04/26 07:57:58;;;;;;;;;63.25;49.00;;;;;14.15;92.01;101494.63;5079120;27;45604;-83
2022/04/26 08:00:25;;;;;;;;;60.50;48.50;;;;;14.18;91.64;101499.06;5078901;27;45410;-81
2022/04/26 08:02:50;;;;;;;;;60.25;46.75;;;;;14.00;91.41;101476.66;5079067;28;45923;-82
2022/04/26 08:05:16;;;;;;;;;58.00;45.75;;;;;14.26;90.96;101504.59;5079676;27;45357;-82
2022/04/26 08:07:42;;;;;;;;;59.00;47.00;;;;;14.28;90.77;101502.94;5088684;28;45396;-82
2022/04/26 08:10:11;;;;;;;;;59.75;47.25;;;;;14.38;89.46;101505.97;5086771;27;45338;-81
2022/04/26 08:12:38;;;;;;;;;56.50;44.25;;;;;14.51;87.95;101516.88;5085614;27;45215;-81
2022/04/26 08:15:05;;;;;;;;;63.00;46.50;;;;;14.62;86.39;101509.50;5086557;27;45219;-83
2022/04/26 08:17:30;;;;;;;;;61.00;48.00;;;;;14.65;85.94;101500.09;5086737;27;45388;-84
2022/04/26 08:19:56;;;;;;;;;59.25;46.50;;;;;14.58;83.77;101481.53;5092332;27;46062;-84
2022/04/26 08:22:22;;;;;;;;;55.75;43.50;;;;;14.68;83.60;101505.47;5083092;27;45324;-83
2022/04/26 08:27:33;;;;;;;;;61.50;46.00;;;;;14.47;82.33;101497.63;5079375;28;45425;-81
2022/04/26 08:30:03;;;;;;;;;51.50;42.50;;;;;14.56;82.86;101528.38;5078724;27;46081;-80
2022/04/26 08:32:43;;;;;;;;;53.50;44.50;;;;;14.51;82.70;101536.03;5080378;27;45281;-79
2022/04/26 08:35:11;;;;;;;;;57.00;44.50;;;;;14.32;82.10;101508.34;5080162;27;45318;-91
2022/04/26 08:37:38;;;;;;;;;52.50;41.00;;;;;14.33;82.21;101530.94;5079649;27;45347;-82
2022/04/26 08:40:07;;;;;;;;;50.50;39.75;;;;;14.29;81.70;101536.84;5075729;27;45446;-80
2022/04/26 08:42:38;;;;;;;;;50.75;38.75;;;;;14.12;80.93;101517.91;5078617;27;45481;-84
2022/04/26 08:45:06;;;;;;;;;55.50;43.25;;;;;14.23;81.33;101541.81;5081151;27;45297;-80
2022/04/26 08:53:01;;;;;;;;;50.75;40.00;;;;;14.61;79.66;101544.22;5080224;28;45904;-81
2022/04/26 08:55:27;;;;;;;;;51.75;42.00;;;;;14.69;78.88;101530.66;5085889;27;45235;-82
2022/04/26 08:57:52;;;;;;;;;52.75;41.25;;;;;14.87;77.40;101545.28;5081982;27;45393;-80
2022/04/26 09:00:18;;;;;;;;;57.25;41.75;;;;;14.95;77.99;101554.28;5079224;27;45583;-81
2022/04/26 09:03:00;;;;;;;;;56.75;45.25;;;;;15.06;76.83;101543.38;5077771;27;45472;-84
2022/04/26 09:05:26;;;;;;;;;52.25;42.50;;;;;15.05;76.44;101552.00;5077875;27;45420;-84
2022/04/26 09:07:51;;;;;;;;;52.75;43.25;;;;;15.11;76.29;101560.09;5077818;27;45332;-81
2022/04/26 09:10:19;;;;;;;;;53.00;42.25;;;;;15.09;76.24;101548.72;5077573;27;45649;-82
2022/04/26 09:13:09;;;;;;;;;50.75;41.00;;;;;15.33;76.25;101569.59;5076100;27;45571;-78
2022/04/26 09:15:41;;;;;;;;;52.75;43.50;;;;;15.33;74.38;101567.00;5078170;27;45787;-80
2022/04/26 09:18:28;;;;;;;;;56.25;45.00;;;;;15.32;74.92;101567.81;5079660;27;45592;-84
2022/04/26 09:20:55;;;;;;;;;52.50;42.25;;;;;15.29;75.08;101573.81;5078528;27;45239;-84
2022/04/26 09:23:26;;;;;;;;;59.25;45.50;;;;;15.27;75.01;101577.22;5079523;27;45307;-82
2022/04/26 09:26:04;;;;;;;;;57.50;45.75;;;;;15.23;74.83;101583.13;5079618;27;45384;-84
2022/04/26 09:28:30;;;;;;;;;55.25;44.50;;;;;15.14;75.78;101566.31;5078494;27;45319;-82
2022/04/26 09:30:57;;;;;;;;;55.50;42.75;;;;;15.15;74.79;101585.44;5076084;28;45525;-79
2022/04/26 09:33:39;;;;;;;;;54.50;42.00;;;;;15.13;74.79;101585.41;5076161;27;46019;-81
2022/04/26 09:36:10;;;;;;;;;55.25;43.00;;;;;15.04;74.73;101577.22;5080180;27;45282;-81
2022/04/26 09:38:41;;;;;;;;;50.75;42.25;;;;;15.00;74.72;101586.66;5085375;27;45169;-81
2022/04/26 09:41:09;;;;;;;;;58.00;45.00;;;;;15.02;75.59;101591.91;5086115;27;45400;-80
2022/04/26 09:43:36;;;;;;;;;53.25;44.00;;;;;15.08;75.71;101597.34;5086746;27;45341;-80
2022/04/26 09:46:04;;;;;;;;;57.50;44.00;;;;;15.10;75.49;101587.88;5078966;27;45317;-84
2022/04/26 09:48:38;;;;;;;;;57.50;44.75;;;;;15.09;75.61;101593.91;5078055;27;45313;-80
2022/04/26 09:51:08;;;;;;;;;52.50;40.75;;;;;15.09;75.93;101598.25;5077732;27;46163;-85
2022/04/26 09:53:34;;;;;;;;;52.50;41.25;;;;;15.07;76.42;101595.56;5078049;27;45881;-80
2022/04/26 09:56:02;;;;;;;;;53.75;42.50;;;;;14.94;76.14;101580.28;5079018;27;45286;-83
2022/04/26 09:58:29;;;;;;;;;60.75;46.50;;;;;15.06;76.65;101612.06;5078032;27;45255;-80
2022/04/26 10:01:04;;;;;;;;;54.25;42.00;;;;;15.11;75.91;101601.81;5077314;27;45584;-83
2022/04/26 10:03:36;;;;;;;;;53.00;43.00;;;;;15.09;75.49;101611.31;5077466;27;45790;-83
2022/04/26 10:06:10;;;;;;;;;56.00;43.00;;;;;14.90;75.20;101584.47;5076602;27;45303;-79
2022/04/26 10:08:36;;;;;;;;;61.50;44.50;;;;;15.07;75.86;101611.22;5075933;28;45488;-83
2022/04/26 10:11:03;;;;;;;;;57.00;43.50;;;;;15.08;75.18;101596.47;5076492;27;46148;-80
2022/04/26 10:13:32;;;;;;;;;53.00;42.50;;;;;15.06;75.27;101598.13;5076765;28;45299;-84
2022/04/26 10:16:05;;;;;;;;;51.25;42.00;;;;;15.11;74.62;101601.81;5077237;27;45345;-84
2022/04/26 10:18:38;;;;;;;;;52.50;43.75;;;;;15.24;74.56;101608.41;5080512;27;45619;-82
2022/04/26 10:21:05;;;;;;;;;51.50;41.50;;;;;15.35;73.94;101611.41;5082475;27;45956;-81
2022/04/26 10:23:51;;;;;;;;;60.25;44.00;;;;;15.45;73.41;101608.31;5081859;27;45403;-81
2022/04/26 10:26:22;;;;;;;;;55.75;44.75;;;;;15.51;73.32;101615.47;5063528;28;45539;-82
2022/04/26 10:28:50;;;;;;;;;51.00;42.25;;;;;15.51;72.78;101599.81;5081926;27;45438;-85
2022/04/26 10:31:20;;;;;;;;;57.00;43.00;;;;;15.66;72.20;101620.41;5078927;28;45821;-83
2022/04/26 10:33:46;;;;;;;;;55.00;41.25;;;;;15.54;71.98;101576.44;5076800;27;45311;-82
2022/04/26 10:36:27;;;;;;;;;52.00;40.75;;;;;15.98;70.05;101618.97;5081249;27;45210;-89
2022/04/26 10:39:05;;;;;;;;;57.25;44.00;;;;;16.06;69.92;101614.03;5077138;27;45402;-79
2022/04/26 10:41:35;;;;;;;;;54.00;42.25;;;;;16.20;70.05;101609.28;5076947;27;45284;-86
2022/04/26 10:44:13;;;;;;;;;51.00;40.25;;;;;16.35;68.42;101615.03;5080493;27;45923;-85
2022/04/26 10:46:54;;;;;;;;;56.25;42.75;;;;;16.33;67.99;101606.25;5081723;27;45443;-79
2022/04/26 10:49:23;;;;;;;;;52.25;39.00;;;;;16.40;67.66;101617.81;5079372;27;45397;-81
2022/04/26 10:51:55;;;;;;;;;54.50;43.25;;;;;16.11;67.61;101569.78;5081402;27;45517;-78
2022/04/26 10:55:01;;;;;;;;;53.00;43.00;;;;;16.27;68.05;101628.66;5084625;27;45962;-77
2022/04/26 10:57:29;;;;;;;;;52.00;39.75;;;;;16.02;68.76;101613.03;5083081;27;45397;-79
2022/04/26 11:00:02;;;;;;;;;53.00;42.50;;;;;16.07;68.12;101623.66;5083356;27;45393;-79
2022/04/26 11:02:31;;;;;;;;;50.50;39.75;;;;;16.05;69.28;101617.47;5088207;27;45597;-81
2022/04/26 11:04:59;;;;;;;;;52.75;43.50;;;;;16.09;69.38;101620.25;5087187;27;45888;-78
2022/04/26 11:07:29;;;;;;;;;51.50;40.75;;;;;15.83;69.47;101568.75;5083412;28;45517;-81
2022/04/26 11:09:56;;;;;;;;;51.75;41.75;;;;;16.17;69.19;101615.28;5083358;27;45388;-82
2022/04/26 11:12:25;;;;;;;;;51.50;43.25;;;;;16.08;69.38;101596.69;5080972;27;46645;-82
2022/04/26 11:14:53;;;;;;;;;53.00;42.00;;;;;16.20;69.65;101606.66;5079715;27;45383;-80
2022/04/26 11:17:22;;;;;;;;;50.25;40.25;;;;;16.23;69.65;101593.72;5079131;27;45470;-80
2022/04/26 11:20:03;;;;;;;;;49.25;40.50;;;;;16.42;69.83;101607.41;5077896;27;45190;-78
2022/04/26 11:22:30;;;;;;;;;48.50;40.25;;;;;16.62;69.18;101608.06;5079641;27;45924;-79
2022/04/26 11:28:10;;;;;;;;;46.75;38.50;;;;;16.98;67.56;101608.38;5080457;27;45402;-78
2022/04/26 11:30:43;;;;;;;;;54.25;39.50;;;;;17.04;66.01;101602.47;5080427;27;45334;-81
2022/04/26 11:33:22;;;;;;;;;44.50;35.75;;;;;17.00;65.70;101587.50;5082226;27;45321;-78
2022/04/26 11:35:52;;;;;;;;;45.50;37.75;;;;;17.06;66.13;101598.13;5079922;28;45283;-81
2022/04/26 11:38:19;;;;;;;;;48.25;38.50;;;;;17.05;65.32;101579.78;5080350;27;45387;-86
2022/04/26 11:40:58;;;;;;;;;46.25;38.75;;;;;17.20;65.30;101595.06;5081940;27;45439;-83
2022/04/26 11:43:31;;;;;;;;;51.75;38.50;;;;;17.27;65.09;101597.03;5081235;27;45741;-79
2022/04/26 11:45:58;;;;;;;;;43.75;35.75;;;;;17.33;65.76;101603.31;5084994;28;45250;-80
2022/04/26 11:48:26;;;;;;;;;47.00;35.50;;;;;17.44;64.60;101603.66;5083593;28;45267;-81
2022/04/26 11:50:54;;;;;;;;;43.00;34.25;;;;;17.59;64.17;101613.66;5081584;27;45550;-78
2022/04/26 11:53:24;;;;;;;;;49.25;38.75;;;;;17.64;63.11;101609.47;5063088;28;47753;-84
2022/04/26 11:55:57;;;;;;;;;40.00;34.75;;;;;17.68;63.02;101606.91;5079002;27;46190;-84
2022/04/26 11:58:34;;;;;;;;;41.25;32.75;;;;;17.82;61.71;101615.19;5080264;27;45242;-81
2022/04/26 12:01:12;;;;;;;;;43.00;35.75;;;;;17.89;61.29;101607.50;5080789;27;45653;-86
2022/04/26 12:03:46;;;;;;;;;45.50;38.00;;;;;17.89;61.71;101607.50;5079217;27;46395;-82
2022/04/26 12:06:13;;;;;;;;;42.50;34.75;;;;;17.79;61.33;101595.00;5078827;27;45969;-82
2022/04/26 12:08:43;;;;;;;;;45.00;38.75;;;;;17.75;61.63;101591.41;5080119;27;45429;-87
2022/04/26 12:11:15;;;;;;;;;35.75;33.00;;;;;17.79;62.32;101603.78;5081626;27;45185;-85
2022/04/26 12:13:41;;;;;;;;;45.50;34.25;;;;;17.72;61.41;101601.81;5080323;27;46672;-81
2022/04/26 12:16:20;;;;;;;;;36.75;32.50;;;;;17.82;62.02;101615.19;5080627;27;45653;-82
2022/04/26 12:19:03;;;;;;;;;45.50;35.75;;;;;17.89;62.55;101611.88;5078141;28;45384;-82
2022/04/26 12:21:46;;;;;;;;;43.25;34.75;;;;;17.83;61.96;101598.59;5078732;27;45258;-82
2022/04/26 12:24:23;;;;;;;;;44.25;33.25;;;;;17.83;62.17;101616.94;5077117;27;46570;-83
2022/04/26 12:26:57;;;;;;;;;40.75;33.75;;;;;17.85;62.04;101623.09;5079582;27;45235;-86
2022/04/26 12:29:25;;;;;;;;;35.00;30.25;;;;;17.91;61.45;101612.81;5081049;27;45329;-81
2022/04/26 12:31:51;;;;;;;;;39.00;33.75;;;;;17.84;60.16;101609.13;5082937;27;45548;-87
2022/04/26 12:34:19;;;;;;;;;34.25;29.75;;;;;17.91;60.04;101597.09;5082739;28;48090;-79
2022/04/26 12:37:06;;;;;;;;;41.00;35.50;;;;;18.04;60.41;101614.94;5087611;27;45284;-89
2022/04/26 12:39:48;;;;;;;;;39.50;35.75;;;;;18.01;59.64;101587.75;5085078;28;45279;-84
2022/04/26 12:42:28;;;;;;;;;35.50;32.00;;;;;18.20;57.72;101597.88;5079889;28;45371;-82
2022/04/26 12:44:56;;;;;;;;;29.50;27.75;;;;;18.40;58.06;101603.63;5077785;27;45876;-82
2022/04/26 12:50:31;;;;;;;;;33.25;28.75;;;;;18.52;55.55;101599.56;5080518;28;45395;-81
2022/04/26 12:53:02;;;;;;;;;31.00;30.00;;;;;18.53;56.07;101583.84;5078215;27;45401;-81
2022/04/26 12:55:34;;;;;;;;;30.75;28.25;;;;;18.58;55.92;101596.19;5078348;27;45457;-82
2022/04/26 12:58:06;;;;;;;;;31.75;30.00;;;;;18.67;55.45;101596.41;5078345;27;45460;-82
2022/04/26 13:00:35;;;;;;;;;30.00;26.00;;;;;18.45;56.04;101558.31;5078853;27;45234;-83
2022/04/26 13:03:05;;;;;;;;;32.00;28.75;;;;;18.71;55.51;101572.91;5081211;27;45489;-82
2022/04/26 13:05:44;;;;;;;;;30.00;26.25;;;;;18.95;55.77;101576.13;5079289;27;46630;-79
2022/04/26 13:08:10;;;;;;;;;27.75;27.75;;;;;19.13;53.04;101573.88;5077920;27;45486;-80
2022/04/26 13:10:37;;;;;;;;;31.75;26.25;;;;;19.10;53.79;101547.56;5078117;27;45377;-80
2022/04/26 13:13:03;;;;;;;;;28.75;22.50;;;;;19.40;53.27;101582.31;5078264;27;45349;-81
2022/04/26 13:15:29;;;;;;;;;25.50;24.50;;;;;19.32;52.58;101553.25;5082026;27;45504;-82
2022/04/26 13:17:55;;;;;;;;;29.25;25.75;;;;;19.52;52.79;101579.03;5083152;28;45425;-80
2022/04/26 13:20:20;;;;;;;;;29.25;24.50;;;;;19.53;51.85;101560.72;5081192;27;45302;-82
2022/04/26 13:22:46;;;;;;;;;25.50;24.25;;;;;19.25;52.35;101540.88;5082098;27;45259;-82
2022/04/26 13:25:12;;;;;;;;;24.25;23.25;;;;;19.27;51.13;101552.31;5079655;27;45504;-81
2022/04/26 13:27:38;;;;;;;;;28.00;24.25;;;;;19.50;51.59;101581.66;5078489;27;45195;-81
2022/04/26 13:30:06;;;;;;;;;25.00;22.75;;;;;19.66;50.99;101572.34;5077670;27;45367;-81
2022/04/26 13:32:31;;;;;;;;;21.50;20.25;;;;;19.78;52.25;101564.69;5077786;27;45400;-80
2022/04/26 13:34:58;;;;;;;;;26.50;24.00;;;;;19.75;49.42;101542.72;5077213;27;45882;-83
2022/04/26 13:37:24;;;;;;;;;23.50;22.00;;;;;19.77;50.08;101549.78;5078220;27;45390;-81
2022/04/26 13:39:50;;;;;;;;;24.75;22.00;;;;;19.98;50.10;101561.56;5078202;27;45421;-80
2022/04/26 13:42:19;;;;;;;;;25.00;24.00;;;;;19.96;49.82;101560.66;5075933;28;45270;-80
2022/04/26 13:44:45;;;;;;;;;29.00;25.00;;;;;19.76;49.86;101550.63;5077687;27;46191;-82
2022/04/26 13:47:11;;;;;;;;;26.75;23.25;;;;;19.93;50.39;101544.81;5077251;27;45405;-82
2022/04/26 13:49:39;;;;;;;;;26.75;26.75;;;;;19.80;49.76;101493.75;5077451;27;45395;-81
2022/04/26 13:52:06;;;;;;;;;26.00;23.50;;;;;20.42;49.83;101552.66;5077412;27;45573;-80
2022/04/26 13:54:32;;;;;;;;;25.75;23.75;;;;;20.52;49.31;101527.38;5077006;27;45258;-79
2022/04/26 13:56:58;;;;;;;;;24.50;23.00;;;;;20.86;47.72;101544.56;5083225;27;45749;-82
2022/04/26 13:59:24;;;;;;;;;27.50;26.50;;;;;20.99;46.97;101539.47;5085557;27;45426;-84
2022/04/26 14:01:55;;;;;;;;;26.75;25.00;;;;;21.25;47.02;101533.66;5083350;27;45521;-80
2022/04/26 14:04:21;;;;;;;;;24.00;22.75;;;;;21.37;46.37;101531.19;5080291;27;45346;-84
2022/04/26 14:06:47;;;;;;;;;23.25;22.00;;;;;21.22;46.07;101510.78;5077607;27;45188;-84
2022/04/26 14:09:13;;;;;;;;;24.25;21.75;;;;;21.11;46.20;101528.25;5077651;27;45274;-83
2022/04/26 14:11:39;;;;;;;;;22.50;22.00;;;;;20.85;45.65;101536.66;5078270;28;45231;-80
2022/04/26 14:22:17;;;;;;;;;26.25;23.25;;;;;19.58;49.24;101522.25;5076887;28;45195;-82
2022/04/26 14:24:43;;;;;;;;;25.75;22.75;;;;;19.55;49.22;101539.72;5075819;27;45560;-81
2022/04/26 14:27:09;;;;;;;;;19.25;18.50;;;;;19.59;49.59;101538.94;5076532;27;45187;-81
2022/04/26 14:29:35;;;;;;;;;19.25;17.50;;;;;19.76;49.26;101537.50;5076794;27;45478;-81
2022/04/26 14:32:02;;;;;;;;;15.50;14.75;;;;;19.95;48.40;101541.38;5077248;27;45600;-81
2022/04/26 14:34:28;;;;;;;;;20.00;18.50;;;;;20.20;47.85;101528.63;5078519;27;46071;-81
2022/04/26 14:36:54;;;;;;;;;19.00;18.00;;;;;20.36;47.30;101532.38;5075330;27;45485;-81
2022/04/26 14:39:19;;;;;;;;;21.25;20.00;;;;;20.38;46.97;101509.63;5079592;28;45515;-80
2022/04/26 14:41:45;;;;;;;;;20.00;19.75;;;;;20.45;46.90;101513.25;5080703;28;45279;-81
2022/04/26 14:44:11;;;;;;;;;21.50;19.25;;;;;20.57;47.54;101538.88;5078516;28;45275;-81
2022/04/26 14:46:36;;;;;;;;;18.75;18.75;;;;;20.48;46.12;101534.34;5076606;28;45327;-82
2022/04/26 14:49:04;;;;;;;;;20.75;19.50;;;;;20.26;46.22;101520.88;5076427;27;45403;-82
2022/04/26 14:51:29;;;;;;;;;17.25;17.00;;;;;20.31;47.05;101535.81;5076682;27;46189;-81
2022/04/26 14:53:55;;;;;;;;;16.25;15.75;;;;;20.24;46.53;101495.41;5075566;27;46139;-81
2022/04/26 14:56:22;;;;;;;;;20.00;17.00;;;;;20.64;45.63;101530.19;5074569;27;45357;-81
2022/04/26 14:58:49;;;;;;;;;19.25;18.00;;;;;20.71;45.09;101532.06;5075780;27;45352;-81
2022/04/26 15:01:18;;;;;;;;;19.75;17.50;;;;;20.81;44.87;101517.31;5076189;27;45572;-81
2022/04/26 15:03:44;;;;;;;;;21.25;19.75;;;;;21.02;43.99;101508.81;5075715;27;45512;-82
2022/04/26 15:06:13;;;;;;;;;14.50;13.75;;;;;21.67;44.21;101528.88;5074552;28;45492;-81
2022/04/26 15:11:23;;;;;;;;;16.25;15.75;;;;;22.41;42.96;101527.81;5076348;28;45457;-82
2022/04/26 15:16:38;;;;;;;;;18.75;16.00;;;;;23.18;39.98;101515.91;5075665;28;45871;-82
2022/04/26 15:19:09;;;;;;;;;14.50;14.50;;;;;22.92;39.55;101502.59;5076183;27;45360;-81
2022/04/26 15:21:35;;;;;;;;;14.50;13.75;;;;;22.36;39.15;101505.75;5077203;27;45496;-83
2022/04/26 15:24:02;;;;;;;;;12.25;12.25;;;;;22.00;40.04;101512.53;5077533;27;45256;-82